Airfield :
LOGIN :

Register | Disclaimer

   EN    FR    IT 

 










Legend :    VFR   Marginal VFR   IFR   Intensive IFR   Very Intensive IFR
Visi :
Ceiling :
>= 8 km
>= 3000ft
5 to 8 km
1000 to 3000 ft
1500m to 5 km
500 to 1000 ft
800 to 1500m
200 to 500 ft
< 800m
< 200 ft
Symbols :   Thunderstorms  Fog  Heavy snow  Heavy precipitations  Wind > 20 kt
SIGMETs :     Misc.  Thunderstorms  Icing  Turbulence  Mountain Waves  Volcanic Ashes






- Airport Elevation : 87 ft
- IATA code : FSC


LFKF - Figari

CURRENT METAR :
  • 130430Z AUTO 26019KT 9999 2000 -RADZ FEW030/// SCT041/// BKN056/// ///TCU 13/11 Q0996

EXPIRED METARs :
  • 130400Z AUTO 26018KT 9999 SCT022/// BKN032/// BKN050/// ///CB 12/11 Q0996
  • 130330Z AUTO 25024G39KT 4500 RA BR SCT016/// BKN021/// BKN027/// ///CB 12/11 Q0997
  • 130300Z AUTO 25017KT 9999 -RA SCT016/// BKN024/// BKN046/// ///CB 12/11 Q0998
  • 130230Z AUTO 25012KT 9999 -RA SCT016/// BKN022/// BKN030/// ///CB 12/11 Q0998

TAF TAF LFKF
Valid from the 13 at 03:00 until the 14 at 03:00 UTC


130200Z 1303/1403 27020G35KT 5000 RA SCT015 BKN025 OVC050
TEMPO 1303/1324 27030G45KT



MET'MAP, your aeronautical weather chart ! - Copyright ORBIFLY December 2007 - Disclaimer

ORBIFLY MET'MAP TEAM :

Programming & Development : Alexandra Zaïnal
Concept & original design : Baudouin d'Aumeries
Assistance for programming : Marc-Olivier Méhu
Technical & hardware support : Manuel Goepfert

Contact : metmap@orbifly.com




SOURCES & CREDITS :

   NOAA